createdAt,value
2019-03-04T00:02:17.324Z,22.57
2019-03-04T00:04:45.787Z,21.43
2019-03-04T00:07:14.249Z,21.07
2019-03-04T00:09:43.373Z,22.87
2019-03-04T00:12:11.933Z,18.67
2019-03-04T00:14:40.456Z,18.10
2019-03-04T00:17:09.189Z,21.83
2019-03-04T00:19:37.696Z,23.70
2019-03-04T00:22:06.261Z,24.30
2019-03-04T00:24:34.719Z,27.23
2019-03-04T00:27:03.190Z,23.20
2019-03-04T00:29:31.652Z,19.57
2019-03-04T00:32:00.120Z,17.40
2019-03-04T00:34:28.653Z,24.27
2019-03-04T00:36:57.134Z,19.60
2019-03-04T00:39:25.598Z,20.33
2019-03-04T00:41:54.042Z,27.37
2019-03-04T00:44:22.494Z,25.10
2019-03-04T00:46:51.555Z,19.50
2019-03-04T00:49:20.082Z,25.27
2019-03-04T00:51:49.056Z,18.33
2019-03-04T00:54:17.968Z,20.03
2019-03-04T00:56:46.471Z,19.70
2019-03-04T00:59:15.007Z,19.07
2019-03-04T01:01:43.474Z,23.43
2019-03-04T01:04:12.140Z,19.33
2019-03-04T01:06:40.612Z,21.07
2019-03-04T01:09:11.080Z,18.93
2019-03-04T01:11:39.593Z,15.43
2019-03-04T01:14:08.056Z,17.73
2019-03-04T01:16:36.937Z,16.13
2019-03-04T01:19:05.395Z,17.20
2019-03-04T01:21:33.857Z,22.73
2019-03-04T01:24:02.324Z,21.30
2019-03-04T01:26:30.788Z,18.83
2019-03-04T01:28:59.267Z,15.63
2019-03-04T01:31:27.729Z,19.33
2019-03-04T01:33:56.190Z,15.17
2019-03-04T01:36:24.643Z,16.70
2019-03-04T01:38:53.145Z,17.90
2019-03-04T01:41:21.768Z,17.73
2019-03-04T01:43:50.253Z,16.10
2019-03-04T01:46:18.707Z,20.40
2019-03-04T01:48:47.210Z,16.20
2019-03-04T01:51:15.658Z,17.73
2019-03-04T01:53:44.245Z,16.23
2019-03-04T01:56:12.790Z,15.47
2019-03-04T01:58:41.256Z,13.20
2019-03-04T02:01:09.701Z,14.23
2019-03-04T02:03:45.884Z,14.27
2019-03-04T02:06:14.393Z,17.33
2019-03-04T02:08:42.846Z,16.10
2019-03-04T02:11:11.570Z,18.10
2019-03-04T02:13:40.014Z,13.57
2019-03-04T02:16:08.495Z,11.87
2019-03-04T02:18:37.038Z,18.37
2019-03-04T02:21:05.534Z,13.83
2019-03-04T02:23:34.017Z,13.70
2019-03-04T02:26:05.584Z,14.53
2019-03-04T02:28:34.158Z,13.67
2019-03-04T02:31:02.747Z,13.50
2019-03-04T02:33:31.220Z,15.33
2019-03-04T02:35:59.758Z,10.83
2019-03-04T02:38:28.203Z,14.00
2019-03-04T02:40:56.687Z,15.37
2019-03-04T02:43:25.135Z,16.37
2019-03-04T02:45:53.587Z,14.03
2019-03-04T02:48:22.172Z,12.10
2019-03-04T02:50:50.687Z,14.50
2019-03-04T02:53:19.219Z,13.23
2019-03-04T02:55:47.684Z,16.33
2019-03-04T02:58:16.137Z,22.00
2019-03-04T03:00:44.657Z,21.13
2019-03-04T03:03:13.240Z,17.97
2019-03-04T03:05:41.698Z,19.33
2019-03-04T03:08:10.151Z,17.87
2019-03-04T03:10:38.609Z,14.10
2019-03-04T03:13:07.196Z,14.87
2019-03-04T03:15:35.729Z,11.47
2019-03-04T03:18:04.276Z,12.87
2019-03-04T03:20:32.812Z,14.17
2019-03-04T03:23:01.350Z,11.60
2019-03-04T03:25:29.873Z,12.67
2019-03-04T03:27:58.341Z,10.60
2019-03-04T03:30:26.879Z,11.97
2019-03-04T03:32:55.416Z,13.07
2019-03-04T03:35:23.948Z,13.00
2019-03-04T03:37:52.474Z,12.63
2019-03-04T03:40:21.689Z,8.77
2019-03-04T03:42:50.222Z,11.63
2019-03-04T03:45:19.086Z,11.97
2019-03-04T03:47:47.697Z,9.30
2019-03-04T03:50:17.264Z,11.67
2019-03-04T03:52:46.331Z,12.57
2019-03-04T03:55:16.850Z,9.60
2019-03-04T03:57:45.480Z,11.60
2019-03-04T04:00:19.671Z,9.33
2019-03-04T04:02:48.333Z,9.77
2019-03-04T04:05:17.171Z,8.77
2019-03-04T04:07:45.771Z,9.67
2019-03-04T04:10:16.935Z,8.97
2019-03-04T04:12:45.555Z,10.17
2019-03-04T04:15:15.397Z,14.37
2019-03-04T04:17:43.844Z,9.47
2019-03-04T04:20:13.163Z,9.30
2019-03-04T04:22:41.703Z,10.50
2019-03-04T04:25:11.470Z,10.37
2019-03-04T04:27:39.993Z,8.87
2019-03-04T04:30:11.733Z,12.10
2019-03-04T04:32:40.606Z,9.93
2019-03-04T04:35:09.753Z,9.93
2019-03-04T04:37:38.373Z,10.93
2019-03-04T04:40:12.226Z,9.73
2019-03-04T04:42:40.738Z,11.50
2019-03-04T04:45:10.125Z,10.20
2019-03-04T04:47:40.128Z,9.73
2019-03-04T04:50:14.687Z,9.70
2019-03-04T04:52:43.226Z,10.33
2019-03-04T04:55:11.812Z,7.53
2019-03-04T04:57:40.387Z,9.07
2019-03-04T05:00:12.261Z,12.33
2019-03-04T05:02:40.810Z,8.33
2019-03-04T05:05:09.352Z,11.37
2019-03-04T05:07:37.912Z,8.80
2019-03-04T05:10:09.520Z,10.47
2019-03-04T05:12:37.963Z,9.33
2019-03-04T05:15:09.467Z,9.77
2019-03-04T05:17:39.836Z,7.37
2019-03-04T05:20:11.778Z,10.70
2019-03-04T05:22:41.034Z,12.50
2019-03-04T05:25:10.069Z,10.27
2019-03-04T05:27:38.777Z,8.90
2019-03-04T05:30:13.137Z,7.97
2019-03-04T05:32:41.596Z,11.67
2019-03-04T05:35:10.137Z,9.63
2019-03-04T05:37:38.688Z,11.50
2019-03-04T05:40:18.190Z,8.00
2019-03-04T05:42:47.219Z,10.67
2019-03-04T05:45:17.779Z,8.70
2019-03-04T05:47:46.404Z,12.53
2019-03-04T05:50:19.957Z,7.80
2019-03-04T05:52:48.482Z,9.50
2019-03-04T05:55:17.057Z,7.63
2019-03-04T05:57:45.516Z,10.33
2019-03-04T06:00:20.255Z,7.07
2019-03-04T06:02:50.291Z,8.93
2019-03-04T06:05:18.737Z,8.23
2019-03-04T06:07:51.723Z,9.27
2019-03-04T06:10:20.190Z,9.10
2019-03-04T06:12:48.646Z,11.17
2019-03-04T06:15:19.031Z,7.23
2019-03-04T06:17:47.473Z,8.40
2019-03-04T06:20:18.287Z,10.13
2019-03-04T06:22:46.874Z,9.30
2019-03-04T06:25:18.411Z,9.93
2019-03-04T06:27:46.972Z,8.80
2019-03-04T06:30:20.700Z,8.13
2019-03-04T06:32:49.253Z,11.33
2019-03-04T06:35:17.831Z,8.13
2019-03-04T06:37:46.360Z,7.27
2019-03-04T06:40:16.657Z,12.17
2019-03-04T06:42:45.394Z,11.33
2019-03-04T06:45:18.310Z,10.30
2019-03-04T06:47:46.843Z,10.27
2019-03-04T06:50:41.170Z,8.10
2019-03-04T06:53:09.636Z,8.53
2019-03-04T06:55:50.281Z,8.30
2019-03-04T06:58:18.812Z,9.93
2019-03-04T07:00:50.366Z,10.00
2019-03-04T07:03:20.341Z,8.10
2019-03-04T07:06:08.139Z,11.47
2019-03-04T07:08:39.659Z,11.80
2019-03-04T07:11:08.123Z,8.43
2019-03-04T07:13:36.649Z,8.93
2019-03-04T07:16:05.318Z,8.57
2019-03-04T07:18:33.846Z,9.97
2019-03-04T07:21:02.319Z,8.67
2019-03-04T07:23:30.886Z,10.40
2019-03-04T07:25:59.386Z,9.73
2019-03-04T07:28:27.839Z,9.17
2019-03-04T07:30:56.497Z,7.83
2019-03-04T07:33:24.959Z,9.77
2019-03-04T07:35:53.414Z,7.77
2019-03-04T07:38:24.940Z,9.33
2019-03-04T07:41:12.743Z,11.77
2019-03-04T07:43:41.208Z,11.63
2019-03-04T07:46:09.711Z,9.90
2019-03-04T07:48:38.174Z,7.13
2019-03-04T07:51:19.465Z,8.60
2019-03-04T07:53:47.996Z,9.13
2019-03-04T07:56:16.450Z,9.50
2019-03-04T07:58:44.991Z,10.43
2019-03-04T08:01:13.433Z,12.17
2019-03-04T08:03:41.920Z,8.90
2019-03-04T08:06:11.014Z,11.87
2019-03-04T08:08:41.877Z,7.83
2019-03-04T08:11:22.406Z,9.03
2019-03-04T08:13:56.944Z,11.37
2019-03-04T08:16:25.478Z,10.40
2019-03-04T08:18:53.934Z,8.80
2019-03-04T08:21:22.393Z,9.00
2019-03-04T08:23:50.885Z,11.07
2019-03-04T08:26:19.582Z,16.80
2019-03-04T08:28:48.040Z,8.67
2019-03-04T08:31:16.538Z,10.30
2019-03-04T08:33:44.996Z,7.33
2019-03-04T08:36:13.450Z,10.93
2019-03-04T08:38:41.953Z,11.57
2019-03-04T08:41:10.483Z,6.80
2019-03-04T08:43:38.942Z,10.00
2019-03-04T08:46:07.393Z,8.20
2019-03-04T08:48:35.841Z,9.70
2019-03-04T08:51:04.298Z,10.57
2019-03-04T08:53:32.749Z,10.30
2019-03-04T08:56:01.218Z,7.57
2019-03-04T08:58:29.771Z,7.40
2019-03-04T09:00:58.694Z,9.50
2019-03-04T09:03:27.172Z,10.47
2019-03-04T09:05:55.639Z,7.83
2019-03-04T09:08:24.161Z,7.43
2019-03-04T09:10:52.839Z,7.70
2019-03-04T09:13:21.296Z,14.87
2019-03-04T09:15:49.750Z,8.43
2019-03-04T09:18:18.241Z,8.60
2019-03-04T09:20:46.781Z,10.63
2019-03-04T09:23:15.235Z,10.50
2019-03-04T09:25:49.773Z,7.10
2019-03-04T09:28:18.228Z,6.17
2019-03-04T09:30:46.737Z,13.30
2019-03-04T09:33:15.269Z,9.90
2019-03-04T09:35:43.724Z,7.53
2019-03-04T09:38:12.206Z,10.00
2019-03-04T09:40:40.664Z,6.00
2019-03-04T09:43:09.124Z,11.13
2019-03-04T09:45:39.212Z,6.17
2019-03-04T09:48:08.051Z,6.40
2019-03-04T09:50:36.687Z,5.73
2019-03-04T09:53:05.243Z,10.43
2019-03-04T09:55:33.724Z,7.47
2019-03-04T09:58:02.253Z,6.53
2019-03-04T10:00:35.781Z,5.27
2019-03-04T10:03:19.289Z,11.17
2019-03-04T10:06:15.251Z,8.87
2019-03-04T10:08:52.964Z,7.07
2019-03-04T10:11:42.528Z,6.07
2019-03-04T10:14:48.701Z,5.47
2019-03-04T10:17:52.165Z,7.13
2019-03-04T10:20:44.972Z,3.43
2019-03-04T10:23:28.314Z,4.53
2019-03-04T10:26:08.511Z,12.77
2019-03-04T10:28:54.476Z,7.40
2019-03-04T10:32:01.024Z,10.43
2019-03-04T10:34:52.029Z,8.80
2019-03-04T10:37:38.720Z,8.43
2019-03-04T10:40:26.743Z,6.60
2019-03-04T10:43:38.070Z,6.67
2019-03-04T10:46:24.627Z,8.37
2019-03-04T10:48:53.116Z,5.43
2019-03-04T10:51:21.816Z,11.50
2019-03-04T10:53:50.355Z,6.20
2019-03-04T10:56:18.805Z,5.90
2019-03-04T10:58:47.533Z,3.70
2019-03-04T11:01:16.061Z,8.53
2019-03-04T11:03:44.527Z,6.27
2019-03-04T11:06:13.071Z,3.77
2019-03-04T11:08:41.617Z,7.20
2019-03-04T11:11:10.135Z,8.33
2019-03-04T11:13:38.884Z,3.40
2019-03-04T11:16:07.509Z,7.10
2019-03-04T11:18:36.036Z,6.10
2019-03-04T11:21:04.687Z,8.23
2019-03-04T11:23:33.665Z,5.23
2019-03-04T11:26:02.190Z,3.60
2019-03-04T11:28:30.726Z,5.97
2019-03-04T11:30:59.335Z,4.70
2019-03-04T11:33:28.141Z,5.20
2019-03-04T11:35:56.671Z,9.43
2019-03-04T11:38:34.266Z,5.63
2019-03-04T11:41:02.790Z,5.27
2019-03-04T11:43:31.246Z,5.40
2019-03-04T11:45:59.744Z,6.47
2019-03-04T11:48:28.203Z,9.97
2019-03-04T11:50:56.668Z,7.93
2019-03-04T11:53:25.150Z,4.27
2019-03-04T11:55:53.661Z,9.90
2019-03-04T11:58:22.167Z,7.43
2019-03-04T12:01:17.518Z,7.00
2019-03-04T12:03:46.110Z,3.57
2019-03-04T12:06:14.594Z,7.47
2019-03-04T12:08:43.051Z,7.73
2019-03-04T12:11:11.506Z,6.60
2019-03-04T12:13:39.968Z,7.53
2019-03-04T12:16:08.576Z,4.90
2019-03-04T12:18:37.385Z,5.20
2019-03-04T12:21:06.272Z,6.20
2019-03-04T12:23:34.739Z,8.20
2019-03-04T12:26:03.434Z,6.60
2019-03-04T12:28:31.981Z,8.07
2019-03-04T12:31:00.448Z,6.43
2019-03-04T12:33:28.965Z,3.83
2019-03-04T12:35:57.421Z,4.70
2019-03-04T12:38:25.951Z,6.23
2019-03-04T12:40:54.398Z,7.37
2019-03-04T12:43:22.885Z,8.67
2019-03-04T12:45:51.417Z,5.33
2019-03-04T12:48:20.090Z,4.50
2019-03-04T12:50:48.547Z,5.07
2019-03-04T12:53:16.989Z,6.17
2019-03-04T12:55:45.460Z,12.20
2019-03-04T12:58:13.917Z,7.07
2019-03-04T13:00:42.504Z,8.13
2019-03-04T13:03:16.535Z,11.53
2019-03-04T13:05:45.055Z,9.83
2019-03-04T13:08:13.518Z,5.97
2019-03-04T13:10:41.966Z,8.53
2019-03-04T13:13:10.570Z,7.70
2019-03-04T13:15:39.031Z,4.60
2019-03-04T13:18:09.803Z,8.13
2019-03-04T13:20:38.503Z,8.43
2019-03-04T13:23:07.471Z,6.90
2019-03-04T13:25:35.986Z,8.70
2019-03-04T13:28:08.530Z,5.60
2019-03-04T13:30:40.552Z,8.43
2019-03-04T13:33:09.614Z,8.97
2019-03-04T13:35:42.221Z,6.07
2019-03-04T13:38:10.946Z,7.87
2019-03-04T13:40:39.484Z,6.23
2019-03-04T13:43:08.383Z,5.73
2019-03-04T13:45:37.309Z,5.50
2019-03-04T13:48:06.035Z,5.17
2019-03-04T13:50:37.170Z,6.43
2019-03-04T13:53:06.215Z,6.97
2019-03-04T13:55:34.791Z,7.03
2019-03-04T13:58:03.388Z,7.87
2019-03-04T14:00:37.704Z,6.87
2019-03-04T14:03:06.677Z,6.87
2019-03-04T14:05:35.140Z,7.30
2019-03-04T14:08:03.725Z,5.37
2019-03-04T14:10:38.177Z,6.13
2019-03-04T14:13:06.708Z,10.00
2019-03-04T14:15:46.166Z,6.47
2019-03-04T14:18:14.747Z,9.97
2019-03-04T14:20:43.505Z,7.07
2019-03-04T14:23:12.027Z,7.10
2019-03-04T14:25:40.670Z,9.97
2019-03-04T14:28:09.193Z,9.37
2019-03-04T14:30:37.720Z,8.63
2019-03-04T14:33:06.195Z,7.90
2019-03-04T14:35:34.707Z,6.13
2019-03-04T14:38:22.537Z,13.43
2019-03-04T14:40:51.101Z,12.53
2019-03-04T14:43:19.554Z,7.67
2019-03-04T14:45:48.101Z,12.63
2019-03-04T14:48:18.083Z,9.00
2019-03-04T14:50:46.796Z,5.87
2019-03-04T14:53:15.315Z,7.30
2019-03-04T14:55:43.763Z,9.40
2019-03-04T14:58:12.234Z,8.13
2019-03-04T15:00:44.076Z,8.28
2019-03-04T15:03:20.977Z,12.57
2019-03-04T15:05:43.108Z,9.27
2019-03-04T15:08:11.911Z,7.87
2019-03-04T15:10:40.479Z,9.30
2019-03-04T15:13:10.036Z,6.73
2019-03-04T15:15:38.876Z,7.40
2019-03-04T15:18:07.603Z,8.77
2019-03-04T15:20:36.140Z,7.70
2019-03-04T15:23:05.065Z,5.40
2019-03-04T15:25:57.363Z,7.53
2019-03-04T15:28:27.174Z,7.57
2019-03-04T15:31:05.183Z,5.03
2019-03-04T15:33:33.828Z,5.37
2019-03-04T15:36:02.324Z,7.50
2019-03-04T15:38:30.787Z,8.93
2019-03-04T15:40:59.246Z,4.47
2019-03-04T15:43:27.915Z,4.77
2019-03-04T15:45:58.156Z,6.27
2019-03-04T15:48:28.842Z,7.83
2019-03-04T15:50:57.367Z,7.23
2019-03-04T15:53:26.104Z,7.30
2019-03-04T15:55:54.602Z,7.37
2019-03-04T15:58:23.055Z,4.17
2019-03-04T16:00:51.879Z,6.30
2019-03-04T16:03:20.369Z,5.87
2019-03-04T16:05:48.889Z,7.63
2019-03-04T16:08:17.513Z,8.23
2019-03-04T16:10:46.244Z,6.77
2019-03-04T16:13:14.707Z,8.87
2019-03-04T16:15:46.083Z,12.33
2019-03-04T16:18:14.937Z,7.30
2019-03-04T16:20:43.446Z,12.80
2019-03-04T16:23:11.914Z,10.87
2019-03-04T16:25:40.353Z,8.03
2019-03-04T16:28:11.908Z,7.20
2019-03-04T16:30:40.996Z,7.47
2019-03-04T16:33:09.542Z,6.50
2019-03-04T16:35:38.394Z,9.60
2019-03-04T16:38:06.910Z,8.50
2019-03-04T16:40:36.042Z,12.43
2019-03-04T16:43:04.568Z,6.53
2019-03-04T16:45:33.018Z,8.93
2019-03-04T16:48:01.515Z,7.40
2019-03-04T16:50:41.578Z,12.97
2019-03-04T16:53:16.008Z,6.67
2019-03-04T16:55:44.475Z,10.77
2019-03-04T16:58:13.810Z,9.47
2019-03-04T17:00:42.566Z,8.33
2019-03-04T17:03:11.024Z,9.57
2019-03-04T17:05:39.504Z,8.77
2019-03-04T17:08:08.285Z,8.00
2019-03-04T17:10:37.508Z,11.47
2019-03-04T17:13:06.107Z,10.57
2019-03-04T17:15:34.599Z,7.90
2019-03-04T17:18:03.160Z,9.60
2019-03-04T17:20:31.616Z,6.47
2019-03-04T17:23:00.223Z,7.43
2019-03-04T17:25:28.780Z,6.43
2019-03-04T17:27:57.698Z,8.17
2019-03-04T17:30:27.590Z,7.33
2019-03-04T17:32:57.793Z,8.93
2019-03-04T17:35:26.243Z,6.73
2019-03-04T17:37:54.742Z,13.40
2019-03-04T17:40:24.910Z,5.67
2019-03-04T17:42:53.392Z,13.80
2019-03-04T17:45:24.289Z,7.40
2019-03-04T17:47:53.395Z,11.63
2019-03-04T17:50:36.703Z,13.67
2019-03-04T17:53:10.078Z,9.57
2019-03-04T17:55:38.710Z,15.43
2019-03-04T17:58:07.227Z,10.77
2019-03-04T18:00:37.767Z,8.23
2019-03-04T18:03:06.430Z,9.30
2019-03-04T18:05:35.108Z,12.13
2019-03-04T18:08:03.615Z,12.33
2019-03-04T18:10:32.150Z,11.97
2019-03-04T18:13:03.089Z,10.87
2019-03-04T18:15:37.839Z,11.10
2019-03-04T18:18:06.536Z,9.47
2019-03-04T18:20:35.023Z,14.07
2019-03-04T18:23:03.831Z,12.97
2019-03-04T18:25:41.537Z,9.17
2019-03-04T18:28:31.562Z,10.60
2019-03-04T18:31:11.749Z,8.93
2019-03-04T18:33:49.145Z,10.13
2019-03-04T18:36:23.582Z,10.73
2019-03-04T18:38:57.607Z,11.20
2019-03-04T18:41:48.953Z,9.00
2019-03-04T18:44:40.477Z,11.57
2019-03-04T18:47:29.018Z,7.13
2019-03-04T18:49:57.561Z,11.73
2019-03-04T18:52:26.115Z,6.20
2019-03-04T18:54:54.618Z,7.40
2019-03-04T18:57:23.087Z,5.90
2019-03-04T18:59:51.634Z,4.63
2019-03-04T19:02:20.110Z,4.87
2019-03-04T19:04:48.564Z,9.70
2019-03-04T19:07:17.038Z,4.50
2019-03-04T19:09:45.490Z,7.83
2019-03-04T19:12:13.958Z,7.80
2019-03-04T19:14:42.481Z,7.47
2019-03-04T19:17:11.049Z,8.23
2019-03-04T19:19:39.497Z,7.67
2019-03-04T19:22:08.042Z,5.07
2019-03-04T19:24:36.611Z,5.33
2019-03-04T19:27:05.264Z,5.40
2019-03-04T19:29:33.792Z,7.57
2019-03-04T19:32:02.237Z,5.87
2019-03-04T19:34:30.949Z,7.83
2019-03-04T19:36:59.421Z,7.10
2019-03-04T19:39:27.875Z,8.33
2019-03-04T19:41:57.033Z,5.03
2019-03-04T19:44:25.563Z,6.30
2019-03-04T19:46:54.252Z,5.47
2019-03-04T19:49:22.714Z,7.80
2019-03-04T19:51:51.176Z,4.33
2019-03-04T19:54:19.642Z,6.20
2019-03-04T19:56:48.176Z,5.93
2019-03-04T19:59:16.711Z,4.93
2019-03-04T20:01:45.233Z,8.17
2019-03-04T20:04:13.730Z,9.73
2019-03-04T20:06:42.263Z,4.93
2019-03-04T20:09:10.946Z,12.20
2019-03-04T20:11:39.483Z,8.97
2019-03-04T20:14:08.090Z,4.90
2019-03-04T20:16:36.773Z,8.43
2019-03-04T20:19:05.294Z,7.73
2019-03-04T20:21:34.116Z,6.28
2019-03-04T20:24:02.598Z,5.63
2019-03-04T20:26:31.084Z,4.07
2019-03-04T20:28:59.908Z,8.37
2019-03-04T20:31:28.370Z,6.33
2019-03-04T20:33:56.909Z,9.53
2019-03-04T20:36:25.984Z,5.63
2019-03-04T20:38:54.765Z,7.80
2019-03-04T20:41:23.251Z,8.17
2019-03-04T20:43:51.794Z,6.00
2019-03-04T20:46:20.362Z,7.30
2019-03-04T20:48:48.831Z,6.57
2019-03-04T20:51:17.815Z,7.73
2019-03-04T20:53:46.293Z,7.77
2019-03-04T20:56:14.744Z,6.40
2019-03-04T20:58:43.574Z,6.17
2019-03-04T21:01:12.563Z,5.80
2019-03-04T21:03:41.092Z,7.57
2019-03-04T21:06:09.612Z,10.20
2019-03-04T21:08:38.075Z,9.30
2019-03-04T21:11:06.555Z,11.93
2019-03-04T21:13:36.096Z,8.50
2019-03-04T21:16:10.739Z,7.33
2019-03-04T21:18:39.559Z,6.30
2019-03-04T21:21:08.560Z,8.20
2019-03-04T21:23:37.047Z,5.60
2019-03-04T21:26:08.636Z,6.87
2019-03-04T21:28:55.499Z,9.93
2019-03-04T21:31:29.945Z,8.53
2019-03-04T21:34:11.376Z,10.17
2019-03-04T21:37:01.230Z,8.23
2019-03-04T21:39:36.950Z,9.80
2019-03-04T21:42:11.471Z,8.50
2019-03-04T21:44:55.023Z,8.73
2019-03-04T21:47:26.949Z,10.97
2019-03-04T21:49:55.670Z,8.00
2019-03-04T21:52:39.683Z,9.20
2019-03-04T21:55:17.229Z,10.10
2019-03-04T21:57:48.772Z,5.97
2019-03-04T22:00:22.388Z,6.90
2019-03-04T22:02:53.991Z,7.23
2019-03-04T22:05:22.510Z,6.17
2019-03-04T22:07:51.442Z,6.63
2019-03-04T22:10:19.914Z,6.57
2019-03-04T22:12:48.550Z,7.00
2019-03-04T22:15:17.696Z,6.60
2019-03-04T22:17:46.362Z,6.90
2019-03-04T22:20:18.011Z,5.70
2019-03-04T22:22:46.631Z,4.23
2019-03-04T22:25:15.407Z,5.30
2019-03-04T22:27:43.936Z,4.73
2019-03-04T22:30:15.564Z,5.47
2019-03-04T22:32:44.330Z,4.40
2019-03-04T22:35:17.384Z,4.40
2019-03-04T22:37:46.509Z,5.30
2019-03-04T22:40:20.326Z,6.37
2019-03-04T22:42:48.825Z,6.33
2019-03-04T22:45:19.285Z,6.00
2019-03-04T22:47:49.541Z,4.93
2019-03-04T22:50:22.772Z,3.20
2019-03-04T22:52:51.644Z,4.53
2019-03-04T22:55:23.595Z,4.07
2019-03-04T22:57:52.119Z,4.40
2019-03-04T23:00:54.003Z,3.50
2019-03-04T23:03:25.345Z,5.00
2019-03-04T23:06:14.746Z,5.27
2019-03-04T23:08:43.221Z,3.67
2019-03-04T23:11:11.961Z,4.80
2019-03-04T23:13:52.527Z,4.07
2019-03-04T23:16:26.760Z,2.60
2019-03-04T23:18:55.499Z,2.27
2019-03-04T23:21:24.250Z,5.73
2019-03-04T23:23:52.836Z,2.70
2019-03-04T23:26:21.296Z,3.90
2019-03-04T23:28:49.747Z,5.03
2019-03-04T23:31:18.198Z,5.17
2019-03-04T23:33:46.723Z,3.43
2019-03-04T23:36:15.223Z,3.90
2019-03-04T23:38:43.762Z,4.60
2019-03-04T23:41:14.229Z,2.13
2019-03-04T23:43:49.919Z,1.47
2019-03-04T23:46:18.374Z,7.87
2019-03-04T23:48:46.836Z,1.60
2019-03-04T23:51:15.295Z,2.43
2019-03-04T23:53:43.987Z,3.17
2019-03-04T23:56:12.851Z,4.67
2019-03-04T23:58:41.370Z,6.40
